X  Chiuso Dati meteorologici dell'aviazione (METAR)        LIBA Tremiti Eliporto
Temperatura
22°C Temperatura
8°C Punto di rugiada
41% Umidità



Vento
4 KM/O
2 MPH
1 M/S
2 KTS



230°
SW
Condizioni attuali

Mostly Sunny Per lo piu' sereno
Pressione 1026 (hPa) - 30.29 (inHg)
Visibilità 7 (miglio) - 11 (km)
Aeroporto
Codice-Aeroporto LIBA

Posizione: Tremiti Eliporto
Distanza: 60 (km)

Metar:
METAR LIBA 190755Z 23002KT CAVOK 22/08 Q1026

Ore: 19-05-2022 09:55 CEST